Time;durP1;ratioP1;P1;durP2;ratioP2;P2;SDS_P1;SDS_P2;PMS_P1;PMS_P2;Temp;Humidity;BMP_temperature;BMP_pressure;BME280_temperature;BME280_humidity;BME280_pressure;Samples;Min_cycle;Max_cycle;Signal;HPM_P1;HPM_P2
2022/07/10 00:01:49;;;;;;;;;;;12.70;99.90;;;;;;5124560;27;19916;-55
2022/07/10 00:04:29;;;;;;;;;;;12.70;99.90;;;;;;5145489;27;19915;-56
2022/07/10 00:07:09;;;;;;;;;;;12.70;99.90;;;;;;5087044;27;19934;-54
2022/07/10 00:09:52;;;;;;;;;;;12.80;99.90;;;;;;5123708;27;19934;-55
2022/07/10 00:12:31;;;;;;;;;;;12.60;99.90;;;;;;5104195;27;19912;-54
2022/07/10 00:15:12;;;;;;;;;;;12.70;99.90;;;;;;5103828;27;19926;-55
2022/07/10 00:17:51;;;;;;;;;;;12.80;99.90;;;;;;5103747;27;19953;-54
2022/07/10 00:20:32;;;;;;;;;;;12.90;99.90;;;;;;5083301;28;20381;-55
2022/07/10 00:23:12;;;;;;;;;;;13.00;99.90;;;;;;5145348;27;19918;-54
2022/07/10 00:25:52;;;;;;;;;;;13.00;99.90;;;;;;5120587;27;19912;-55
2022/07/10 00:28:32;;;;;;;;;;;13.10;99.90;;;;;;5124697;27;19912;-53
2022/07/10 00:31:12;;;;;;;;;;;13.10;99.90;;;;;;5123874;27;19916;-56
2022/07/10 00:33:52;;;;;;;;;;;13.20;99.90;;;;;;5104478;27;19926;-55
2022/07/10 00:36:31;;;;;;;;;;;13.10;99.90;;;;;;5113012;27;20126;-54
2022/07/10 00:39:11;;;;;;;;;;;13.10;99.90;;;;;;5106109;27;19912;-54
2022/07/10 00:41:51;;;;;;;;;;;13.20;99.90;;;;;;5103666;27;19912;-55
2022/07/10 00:44:31;;;;;;;;;;;13.10;99.90;;;;;;5104399;27;19919;-53
2022/07/10 00:47:11;;;;;;;;;;;13.20;99.90;;;;;;5084663;27;20323;-53
2022/07/10 00:49:52;;;;;;;;;;;13.20;99.90;;;;;;5124690;27;19915;-56
2022/07/10 00:52:33;;;;;;;;;;;13.20;99.90;;;;;;5124754;27;19929;-55
2022/07/10 00:55:14;;;;;;;;;;;13.20;99.90;;;;;;5103813;27;19912;-54
2022/07/10 00:57:55;;;;;;;;;;;13.20;99.90;;;;;;5123797;27;19912;-55
2022/07/10 01:00:37;;;;;;;;;;;13.20;99.90;;;;;;5124331;27;20285;-55
2022/07/10 01:03:18;;;;;;;;;;;13.00;99.90;;;;;;5124363;27;20311;-53
2022/07/10 01:05:58;;;;;;;;;;;13.00;99.90;;;;;;5117573;27;19916;-54
2022/07/10 01:08:38;;;;;;;;;;;13.00;99.90;;;;;;5117577;27;19915;-54
2022/07/10 01:11:17;;;;;;;;;;;13.10;99.90;;;;;;5102384;27;19915;-54
2022/07/10 01:13:57;;;;;;;;;;;13.10;99.90;;;;;;5123527;27;19919;-58
2022/07/10 01:16:37;;;;;;;;;;;13.10;99.90;;;;;;5111775;27;19962;-56
2022/07/10 01:19:18;;;;;;;;;;;13.10;99.90;;;;;;5124325;27;19912;-54
2022/07/10 01:21:58;;;;;;;;;;;13.10;99.90;;;;;;5119956;27;19920;-54
2022/07/10 01:24:38;;;;;;;;;;;13.20;99.90;;;;;;5117942;27;19965;-55
2022/07/10 01:27:18;;;;;;;;;;;13.20;99.90;;;;;;5084840;27;20459;-57
2022/07/10 01:29:58;;;;;;;;;;;13.30;99.90;;;;;;5097484;27;19930;-54
2022/07/10 01:32:40;;;;;;;;;;;13.40;99.90;;;;;;5115852;27;19916;-58
2022/07/10 01:35:20;;;;;;;;;;;13.30;99.90;;;;;;5100062;27;19926;-55
2022/07/10 01:38:00;;;;;;;;;;;13.40;99.90;;;;;;5121849;27;19912;-56
2022/07/10 01:40:40;;;;;;;;;;;13.30;99.90;;;;;;5123615;27;19931;-55
2022/07/10 01:43:20;;;;;;;;;;;13.20;99.90;;;;;;5117281;27;19916;-55
2022/07/10 01:46:00;;;;;;;;;;;13.20;99.90;;;;;;5116396;27;20288;-56
2022/07/10 01:48:40;;;;;;;;;;;13.00;99.90;;;;;;5124407;27;20020;-55
2022/07/10 01:51:19;;;;;;;;;;;12.90;99.90;;;;;;5124162;27;19916;-56
2022/07/10 01:53:59;;;;;;;;;;;12.70;99.90;;;;;;5124549;27;19916;-58
2022/07/10 01:56:39;;;;;;;;;;;12.60;99.90;;;;;;5111980;27;19918;-54
2022/07/10 01:59:19;;;;;;;;;;;12.50;99.90;;;;;;5124305;27;19912;-52
2022/07/10 02:01:59;;;;;;;;;;;12.40;99.90;;;;;;5124680;27;20377;-53
2022/07/10 02:04:42;;;;;;;;;;;12.60;99.90;;;;;;5124598;27;19918;-54
2022/07/10 02:07:25;;;;;;;;;;;12.70;99.90;;;;;;5081090;27;19931;-54
2022/07/10 02:10:05;;;;;;;;;;;12.70;99.90;;;;;;5098049;27;19916;-54
2022/07/10 02:12:46;;;;;;;;;;;12.70;99.90;;;;;;5124327;27;19919;-54
2022/07/10 02:15:26;;;;;;;;;;;12.70;99.90;;;;;;5101175;27;19916;-54
2022/07/10 02:18:06;;;;;;;;;;;12.80;99.90;;;;;;5123859;27;20402;-54
2022/07/10 02:20:46;;;;;;;;;;;12.80;99.90;;;;;;5124578;27;19918;-54
2022/07/10 02:23:25;;;;;;;;;;;12.90;99.90;;;;;;5124399;27;19919;-54
2022/07/10 02:26:05;;;;;;;;;;;12.90;99.90;;;;;;5096398;27;19930;-54
2022/07/10 02:28:45;;;;;;;;;;;13.00;99.90;;;;;;5124291;27;19918;-54
2022/07/10 02:31:25;;;;;;;;;;;12.90;99.90;;;;;;5122307;27;20175;-54
2022/07/10 02:34:05;;;;;;;;;;;13.00;99.90;;;;;;5107390;27;19923;-54
2022/07/10 02:36:45;;;;;;;;;;;13.10;99.90;;;;;;5122159;27;19912;-54
2022/07/10 02:39:24;;;;;;;;;;;13.00;99.90;;;;;;5124418;27;19912;-54
2022/07/10 02:42:05;;;;;;;;;;;13.10;99.90;;;;;;5104451;27;19916;-54
2022/07/10 02:44:46;;;;;;;;;;;13.10;99.90;;;;;;5102637;27;19923;-54
2022/07/10 02:47:29;;;;;;;;;;;13.00;99.90;;;;;;5125083;22;19924;-54
2022/07/10 02:50:09;;;;;;;;;;;12.90;99.90;;;;;;5123466;27;19912;-55
2022/07/10 02:52:50;;;;;;;;;;;12.90;99.90;;;;;;5124127;27;19912;-55
2022/07/10 02:55:31;;;;;;;;;;;12.90;99.90;;;;;;5121806;27;19922;-55
2022/07/10 02:58:11;;;;;;;;;;;12.80;99.90;;;;;;5123116;27;19911;-55
2022/07/10 03:00:51;;;;;;;;;;;12.80;99.90;;;;;;5103053;27;20361;-55
2022/07/10 03:03:31;;;;;;;;;;;12.80;99.90;;;;;;5121672;27;19916;-55
2022/07/10 03:06:11;;;;;;;;;;;12.80;99.90;;;;;;5115301;27;19926;-55
2022/07/10 03:08:50;;;;;;;;;;;12.80;99.90;;;;;;5120993;27;19919;-55
2022/07/10 03:11:30;;;;;;;;;;;12.70;99.90;;;;;;5081930;28;19936;-54
2022/07/10 03:14:10;;;;;;;;;;;12.60;99.90;;;;;;5125052;27;20533;-54
2022/07/10 03:16:50;;;;;;;;;;;12.70;99.90;;;;;;5102808;27;19919;-55
2022/07/10 03:19:30;;;;;;;;;;;12.60;99.90;;;;;;5146051;27;19925;-55
2022/07/10 03:22:10;;;;;;;;;;;12.60;99.90;;;;;;5102742;27;19912;-55
2022/07/10 03:24:50;;;;;;;;;;;12.50;99.90;;;;;;5104012;27;19920;-55
2022/07/10 03:27:29;;;;;;;;;;;12.40;99.90;;;;;;5123848;27;19945;-55
2022/07/10 03:30:10;;;;;;;;;;;12.20;99.90;;;;;;5124122;27;20440;-55
2022/07/10 03:32:50;;;;;;;;;;;12.20;99.90;;;;;;5102862;27;19916;-55
2022/07/10 03:35:32;;;;;;;;;;;12.20;99.90;;;;;;5124560;27;19917;-55
2022/07/10 03:38:12;;;;;;;;;;;12.20;99.90;;;;;;5124424;27;19911;-55
2022/07/10 03:40:52;;;;;;;;;;;12.20;99.90;;;;;;5124791;27;19915;-55
2022/07/10 03:43:32;;;;;;;;;;;12.20;99.90;;;;;;5123241;27;19926;-55
2022/07/10 03:46:13;;;;;;;;;;;12.30;99.90;;;;;;5099986;27;19927;-55
2022/07/10 03:48:53;;;;;;;;;;;12.30;99.90;;;;;;5124338;27;19916;-54
2022/07/10 03:51:33;;;;;;;;;;;12.30;99.90;;;;;;5102724;27;19912;-55
2022/07/10 03:54:12;;;;;;;;;;;12.30;99.90;;;;;;5124607;27;19916;-55
2022/07/10 03:59:50;;;;;;;;;;;12.40;99.90;;;;;;5124609;27;20014;-55
2022/07/10 04:02:29;;;;;;;;;;;12.40;99.90;;;;;;5124646;27;19912;-55
2022/07/10 04:05:11;;;;;;;;;;;12.50;99.90;;;;;;5103524;27;19970;-55
2022/07/10 04:07:52;;;;;;;;;;;12.50;99.90;;;;;;5123434;27;19911;-55
2022/07/10 04:10:32;;;;;;;;;;;12.50;99.90;;;;;;5103911;27;19926;-55
2022/07/10 04:13:12;;;;;;;;;;;12.50;99.90;;;;;;5104147;27;19916;-55
2022/07/10 04:15:52;;;;;;;;;;;12.50;99.90;;;;;;5121658;27;20291;-56
2022/07/10 04:18:32;;;;;;;;;;;12.50;99.90;;;;;;5124890;27;20311;-55
2022/07/10 04:21:11;;;;;;;;;;;12.50;99.90;;;;;;5124097;27;19918;-55
2022/07/10 04:23:51;;;;;;;;;;;12.60;99.90;;;;;;5124579;27;19916;-55
2022/07/10 04:26:31;;;;;;;;;;;12.60;99.90;;;;;;5123263;27;19912;-55
2022/07/10 04:29:11;;;;;;;;;;;12.60;99.90;;;;;;5103571;27;19918;-55
2022/07/10 04:31:51;;;;;;;;;;;12.60;99.90;;;;;;5103798;27;20366;-55
2022/07/10 04:34:31;;;;;;;;;;;12.60;99.90;;;;;;5104334;27;19922;-55
2022/07/10 04:37:10;;;;;;;;;;;12.70;99.90;;;;;;5102564;27;19912;-54
2022/07/10 04:39:50;;;;;;;;;;;12.70;99.90;;;;;;5124100;27;19916;-54
2022/07/10 04:42:30;;;;;;;;;;;12.70;99.90;;;;;;5124460;27;20148;-55
2022/07/10 04:45:11;;;;;;;;;;;12.70;99.90;;;;;;5124039;27;19929;-55
2022/07/10 04:47:51;;;;;;;;;;;12.80;99.90;;;;;;5123770;27;19935;-55
2022/07/10 04:50:31;;;;;;;;;;;12.80;99.90;;;;;;5103255;27;19912;-55
2022/07/10 04:53:11;;;;;;;;;;;12.80;99.90;;;;;;5103759;27;20394;-55
2022/07/10 04:55:51;;;;;;;;;;;12.80;99.90;;;;;;5123601;27;20368;-56
2022/07/10 04:58:31;;;;;;;;;;;12.90;99.90;;;;;;5124370;27;19916;-55
2022/07/10 05:01:10;;;;;;;;;;;12.80;99.90;;;;;;5123828;27;19915;-55
2022/07/10 05:03:50;;;;;;;;;;;12.90;99.90;;;;;;5124659;27;19922;-55
2022/07/10 05:06:30;;;;;;;;;;;12.90;99.90;;;;;;5123359;27;19942;-55
2022/07/10 05:09:10;;;;;;;;;;;13.00;99.90;;;;;;5123748;27;20308;-55
2022/07/10 05:11:50;;;;;;;;;;;13.20;99.90;;;;;;5144552;27;19912;-55
2022/07/10 05:14:30;;;;;;;;;;;13.60;99.90;;;;;;5131326;27;19934;-55
2022/07/10 05:17:09;;;;;;;;;;;14.20;99.90;;;;;;5118981;27;19912;-55
2022/07/10 05:19:51;;;;;;;;;;;14.80;99.90;;;;;;5116474;27;19912;-55
2022/07/10 05:22:31;;;;;;;;;;;15.00;99.90;;;;;;5123352;27;20382;-55
2022/07/10 05:25:11;;;;;;;;;;;15.00;99.90;;;;;;5095042;27;19931;-55
2022/07/10 05:27:50;;;;;;;;;;;15.00;99.90;;;;;;5122618;27;19912;-54
2022/07/10 05:30:34;;;;;;;;;;;15.00;99.90;;;;;;5114848;27;20300;-55
2022/07/10 05:33:13;;;;;;;;;;;14.90;99.90;;;;;;5124454;27;19912;-54
2022/07/10 05:35:53;;;;;;;;;;;14.90;99.90;;;;;;5112912;27;19919;-55
2022/07/10 05:38:33;;;;;;;;;;;15.20;99.90;;;;;;5123037;27;20284;-55
2022/07/10 05:41:13;;;;;;;;;;;15.70;99.90;;;;;;5123188;27;19916;-54
2022/07/10 05:43:53;;;;;;;;;;;16.40;99.90;;;;;;5124341;27;19915;-55
2022/07/10 05:46:32;;;;;;;;;;;16.50;99.90;;;;;;5075770;28;19917;-54
2022/07/10 05:49:12;;;;;;;;;;;16.30;99.90;;;;;;5101324;27;20327;-55
2022/07/10 05:51:52;;;;;;;;;;;16.20;99.90;;;;;;5122858;27;20274;-55
2022/07/10 05:54:32;;;;;;;;;;;16.00;99.90;;;;;;5081762;28;20167;-55
2022/07/10 05:57:12;;;;;;;;;;;15.80;99.90;;;;;;5118567;27;19922;-55
2022/07/10 05:59:52;;;;;;;;;;;15.60;99.90;;;;;;5115862;27;19915;-54
2022/07/10 06:02:31;;;;;;;;;;;15.70;99.90;;;;;;5124128;27;19912;-56
2022/07/10 06:05:11;;;;;;;;;;;16.40;99.90;;;;;;5099479;27;20327;-56
2022/07/10 06:07:51;;;;;;;;;;;17.00;99.90;;;;;;5106049;27;20284;-56
2022/07/10 06:10:34;;;;;;;;;;;17.10;99.90;;;;;;5124011;27;19945;-54
2022/07/10 06:13:14;;;;;;;;;;;16.70;99.90;;;;;;5095316;27;19934;-56
2022/07/10 06:15:54;;;;;;;;;;;16.40;99.90;;;;;;5104896;27;19916;-55
2022/07/10 06:18:33;;;;;;;;;;;16.30;99.90;;;;;;5118935;27;19916;-55
2022/07/10 06:21:13;;;;;;;;;;;16.40;99.90;;;;;;5096206;27;20000;-54
2022/07/10 06:23:53;;;;;;;;;;;16.40;99.90;;;;;;5107323;27;20319;-54
2022/07/10 06:26:33;;;;;;;;;;;16.40;99.90;;;;;;5102874;27;19912;-55
2022/07/10 06:29:15;;;;;;;;;;;16.50;99.90;;;;;;5123903;27;19953;-56
2022/07/10 06:31:54;;;;;;;;;;;16.70;99.90;;;;;;5122377;27;19949;-55
2022/07/10 06:34:34;;;;;;;;;;;16.80;99.90;;;;;;5122383;27;20421;-55
2022/07/10 06:37:14;;;;;;;;;;;17.00;99.90;;;;;;5110382;27;19912;-54
2022/07/10 06:39:56;;;;;;;;;;;16.80;99.90;;;;;;5102768;27;19924;-54
2022/07/10 06:42:37;;;;;;;;;;;16.60;99.90;;;;;;5124390;27;20069;-55
2022/07/10 06:45:21;;;;;;;;;;;16.90;99.90;;;;;;5101327;27;19920;-54
2022/07/10 06:48:01;;;;;;;;;;;17.40;99.90;;;;;;5061957;28;19921;-55
2022/07/10 06:50:41;;;;;;;;;;;17.90;99.90;;;;;;5138130;27;20285;-55
2022/07/10 06:53:23;;;;;;;;;;;18.00;99.90;;;;;;5123412;27;20399;-55
2022/07/10 06:56:04;;;;;;;;;;;17.80;99.90;;;;;;5122533;27;20396;-55
2022/07/10 06:58:44;;;;;;;;;;;17.60;99.90;;;;;;5118979;27;19916;-55
2022/07/10 07:01:23;;;;;;;;;;;17.50;99.90;;;;;;5101302;27;19926;-55
2022/07/10 07:04:04;;;;;;;;;;;17.20;99.90;;;;;;5145523;27;19933;-55
2022/07/10 07:06:43;;;;;;;;;;;17.00;99.90;;;;;;5094668;27;20096;-55
2022/07/10 07:09:23;;;;;;;;;;;17.50;99.90;;;;;;5123109;27;19926;-54
2022/07/10 07:12:03;;;;;;;;;;;17.90;99.90;;;;;;5102978;27;19926;-55
2022/07/10 07:14:44;;;;;;;;;;;18.40;99.90;;;;;;5103117;27;19961;-54
2022/07/10 07:17:25;;;;;;;;;;;18.70;99.90;;;;;;5108431;27;19912;-55
2022/07/10 07:23:19;;;;;;;;;;;18.60;96.60;;;;;;5099472;27;19947;-54
2022/07/10 07:25:59;;;;;;;;;;;18.30;97.00;;;;;;5098758;27;20356;-55
2022/07/10 07:28:39;;;;;;;;;;;17.90;95.00;;;;;;5122245;27;19916;-55
2022/07/10 07:31:19;;;;;;;;;;;17.60;97.30;;;;;;5101942;27;19934;-55
2022/07/10 07:34:00;;;;;;;;;;;17.80;95.20;;;;;;5103627;27;19961;-55
2022/07/10 07:36:40;;;;;;;;;;;17.90;93.10;;;;;;5083738;27;20059;-54
2022/07/10 07:39:19;;;;;;;;;;;18.10;94.90;;;;;;5121861;27;19912;-55
2022/07/10 07:41:59;;;;;;;;;;;18.20;92.80;;;;;;5121829;27;20385;-55
2022/07/10 07:44:39;;;;;;;;;;;18.50;91.50;;;;;;5121722;27;19916;-55
2022/07/10 07:47:19;;;;;;;;;;;18.70;85.30;;;;;;5119821;27;19933;-56
2022/07/10 07:50:02;;;;;;;;;;;18.50;85.80;;;;;;5101106;27;20305;-54
2022/07/10 07:52:42;;;;;;;;;;;18.20;88.30;;;;;;5122560;27;19924;-54
2022/07/10 07:55:24;;;;;;;;;;;18.40;85.10;;;;;;5100333;27;19919;-55
2022/07/10 07:58:05;;;;;;;;;;;18.50;86.80;;;;;;5081609;27;19954;-55
2022/07/10 08:00:45;;;;;;;;;;;18.80;81.70;;;;;;5100853;27;20324;-55
2022/07/10 08:03:24;;;;;;;;;;;18.80;81.80;;;;;;5123110;27;20308;-55
2022/07/10 08:06:04;;;;;;;;;;;18.60;77.80;;;;;;5099951;27;20415;-54
2022/07/10 08:08:44;;;;;;;;;;;19.00;79.80;;;;;;5123359;27;19918;-55
2022/07/10 08:11:24;;;;;;;;;;;19.40;73.10;;;;;;5120239;27;19919;-56
2022/07/10 08:14:04;;;;;;;;;;;19.50;74.10;;;;;;5123724;27;19915;-55
2022/07/10 08:16:44;;;;;;;;;;;19.50;75.80;;;;;;5100937;27;19916;-55
2022/07/10 08:19:23;;;;;;;;;;;19.20;68.20;;;;;;5122737;27;20369;-56
2022/07/10 08:22:03;;;;;;;;;;;19.20;69.20;;;;;;5124512;27;19925;-55
2022/07/10 08:24:43;;;;;;;;;;;19.60;65.70;;;;;;5122702;27;19915;-56
2022/07/10 08:27:23;;;;;;;;;;;19.90;64.10;;;;;;5109185;27;19916;-55
2022/07/10 08:30:03;;;;;;;;;;;20.10;64.70;;;;;;5122756;27;19923;-55
2022/07/10 08:32:43;;;;;;;;;;;20.10;63.10;;;;;;5121973;27;20458;-55
2022/07/10 08:35:22;;;;;;;;;;;20.00;62.40;;;;;;5078577;28;20332;-54
2022/07/10 08:38:05;;;;;;;;;;;20.00;62.00;;;;;;5101149;27;19920;-57
2022/07/10 08:40:46;;;;;;;;;;;19.90;64.60;;;;;;5097239;27;19930;-55
2022/07/10 08:43:27;;;;;;;;;;;19.50;67.70;;;;;;5114595;27;19927;-55
2022/07/10 08:46:07;;;;;;;;;;;19.20;65.10;;;;;;5106490;27;20331;-55
2022/07/10 08:48:49;;;;;;;;;;;18.80;70.30;;;;;;5122979;27;19920;-55
2022/07/10 08:51:36;;;;;;;;;;;19.00;69.40;;;;;;5128343;27;19912;-57
2022/07/10 08:54:18;;;;;;;;;;;20.00;65.10;;;;;;5122125;27;19916;-56
2022/07/10 08:56:59;;;;;;;;;;;21.00;63.70;;;;;;5103262;27;19920;-55
2022/07/10 08:59:38;;;;;;;;;;;21.00;57.60;;;;;;5087239;27;19916;-56
2022/07/10 09:02:18;;;;;;;;;;;20.50;59.70;;;;;;5102628;27;19912;-55
2022/07/10 09:04:59;;;;;;;;;;;20.30;58.60;;;;;;5119457;27;19916;-55
2022/07/10 09:07:41;;;;;;;;;;;19.90;60.20;;;;;;5104541;27;19912;-55
2022/07/10 09:10:22;;;;;;;;;;;19.80;60.30;;;;;;5120136;27;19922;-56
2022/07/10 09:13:03;;;;;;;;;;;19.40;62.70;;;;;;5101707;27;20367;-55
2022/07/10 09:15:48;;;;;;;;;;;18.90;65.50;;;;;;5082007;28;19913;-55
2022/07/10 09:18:28;;;;;;;;;;;18.70;66.30;;;;;;5083224;28;19962;-56
2022/07/10 09:21:12;;;;;;;;;;;18.90;69.80;;;;;;5101201;27;20435;-55
2022/07/10 09:23:52;;;;;;;;;;;19.20;63.90;;;;;;5125143;27;19927;-56
2022/07/10 09:26:31;;;;;;;;;;;19.50;63.00;;;;;;5130017;27;20516;-55
2022/07/10 09:29:12;;;;;;;;;;;20.10;60.60;;;;;;5123382;27;20254;-56
2022/07/10 09:31:54;;;;;;;;;;;21.10;56.80;;;;;;5095233;27;20319;-56
2022/07/10 09:34:40;;;;;;;;;;;21.60;54.50;;;;;;5102540;27;20400;-55
2022/07/10 09:37:21;;;;;;;;;;;21.40;55.20;;;;;;5108114;27;19916;-56
2022/07/10 09:40:03;;;;;;;;;;;20.70;55.30;;;;;;5123401;27;19916;-55
2022/07/10 09:42:43;;;;;;;;;;;20.30;59.30;;;;;;5124014;27;19918;-55
2022/07/10 09:45:24;;;;;;;;;;;19.90;59.30;;;;;;5099130;27;19931;-55
2022/07/10 09:48:04;;;;;;;;;;;20.10;58.00;;;;;;5101698;27;19916;-55
2022/07/10 09:50:44;;;;;;;;;;;20.40;56.90;;;;;;5122690;27;19912;-56
2022/07/10 09:53:24;;;;;;;;;;;20.60;56.20;;;;;;5123899;27;19911;-55
2022/07/10 09:56:04;;;;;;;;;;;21.10;54.10;;;;;;5099719;27;19957;-55
2022/07/10 09:58:46;;;;;;;;;;;21.40;54.00;;;;;;5097477;27;19915;-54
2022/07/10 10:01:28;;;;;;;;;;;21.60;53.90;;;;;;5123305;27;19919;-55
2022/07/10 10:04:09;;;;;;;;;;;21.60;54.10;;;;;;5124043;27;19912;-56
2022/07/10 10:06:51;;;;;;;;;;;21.50;53.40;;;;;;5108411;27;19920;-55
2022/07/10 10:09:34;;;;;;;;;;;21.20;53.80;;;;;;5083473;27;19916;-55
2022/07/10 10:12:17;;;;;;;;;;;21.20;51.80;;;;;;5125303;27;19915;-55
2022/07/10 10:14:59;;;;;;;;;;;21.10;51.60;;;;;;5099473;27;19920;-55
2022/07/10 10:17:39;;;;;;;;;;;21.20;51.40;;;;;;5104816;27;19920;-56
2022/07/10 10:20:41;;;;;;;;;;;21.30;52.80;;;;;;5124039;27;20107;-55
2022/07/10 10:23:23;;;;;;;;;;;21.60;52.90;;;;;;5107740;27;20278;-55
2022/07/10 10:26:03;;;;;;;;;;;22.20;53.70;;;;;;5121928;27;20293;-55
2022/07/10 10:28:44;;;;;;;;;;;21.90;49.30;;;;;;5102825;27;19946;-55
2022/07/10 10:31:25;;;;;;;;;;;21.50;51.70;;;;;;5097905;27;20409;-55
2022/07/10 10:34:06;;;;;;;;;;;21.20;52.10;;;;;;5120579;27;19916;-56
2022/07/10 10:36:47;;;;;;;;;;;21.00;51.90;;;;;;5123287;27;19915;-56
2022/07/10 10:39:27;;;;;;;;;;;20.90;53.50;;;;;;5102731;27;20297;-56
2022/07/10 10:42:08;;;;;;;;;;;21.20;52.90;;;;;;5103731;27;19916;-55
2022/07/10 10:44:48;;;;;;;;;;;21.30;50.60;;;;;;5122948;27;20404;-55
2022/07/10 10:47:48;;;;;;;;;;;21.30;53.30;;;;;;5109420;27;19912;-55
2022/07/10 10:50:38;;;;;;;;;;;21.50;53.30;;;;;;5124252;27;19912;-55
2022/07/10 10:53:19;;;;;;;;;;;22.00;50.50;;;;;;5104197;27;19969;-56
2022/07/10 10:56:17;;;;;;;;;;;22.30;51.60;;;;;;5118353;27;19919;-55
2022/07/10 10:58:57;;;;;;;;;;;21.80;50.50;;;;;;5100869;27;19954;-55
2022/07/10 11:01:39;;;;;;;;;;;21.40;51.20;;;;;;5123536;27;19919;-55
2022/07/10 11:04:19;;;;;;;;;;;22.00;55.00;;;;;;5124189;27;19915;-55
2022/07/10 11:06:58;;;;;;;;;;;22.60;49.90;;;;;;5105882;27;19920;-56
2022/07/10 11:09:39;;;;;;;;;;;22.60;50.40;;;;;;5124268;27;19911;-56
2022/07/10 11:12:20;;;;;;;;;;;22.50;50.60;;;;;;5124874;27;19912;-55
2022/07/10 11:15:05;;;;;;;;;;;22.10;49.40;;;;;;5122807;27;19912;-54
2022/07/10 11:17:46;;;;;;;;;;;21.40;49.40;;;;;;5143536;27;19912;-55
2022/07/10 11:20:27;;;;;;;;;;;20.80;50.50;;;;;;5103481;27;19916;-54
2022/07/10 11:23:25;;;;;;;;;;;20.90;52.00;;;;;;5116733;27;20377;-54
2022/07/10 11:26:10;;;;;;;;;;;20.80;50.20;;;;;;5101940;27;19916;-56
2022/07/10 11:28:52;;;;;;;;;;;21.10;51.70;;;;;;5082243;28;20385;-55
2022/07/10 11:31:38;;;;;;;;;;;21.60;50.20;;;;;;5143779;27;19916;-55
2022/07/10 11:34:18;;;;;;;;;;;22.00;48.90;;;;;;5103995;27;19926;-56
2022/07/10 11:36:58;;;;;;;;;;;22.50;48.30;;;;;;5123075;27;19912;-55
2022/07/10 11:39:38;;;;;;;;;;;23.30;48.50;;;;;;5123503;27;19912;-54
2022/07/10 11:42:18;;;;;;;;;;;24.20;45.10;;;;;;5123917;27;19916;-56
2022/07/10 11:44:57;;;;;;;;;;;24.60;44.40;;;;;;5153618;27;20330;-56
2022/07/10 11:47:40;;;;;;;;;;;24.50;43.30;;;;;;5150400;27;20360;-56
2022/07/10 11:50:20;;;;;;;;;;;24.30;42.60;;;;;;5080083;28;19912;-55
2022/07/10 11:53:00;;;;;;;;;;;23.80;43.50;;;;;;5123270;27;19912;-56
2022/07/10 11:55:41;;;;;;;;;;;23.40;44.20;;;;;;5100265;27;19919;-55
2022/07/10 11:58:22;;;;;;;;;;;22.70;44.70;;;;;;5119365;27;19920;-56
2022/07/10 12:01:05;;;;;;;;;;;22.50;46.60;;;;;;5070410;28;19912;-55
2022/07/10 12:03:55;;;;;;;;;;;22.70;46.20;;;;;;5114180;27;19916;-56
2022/07/10 12:06:36;;;;;;;;;;;22.80;46.80;;;;;;5115766;27;19917;-55
2022/07/10 12:09:17;;;;;;;;;;;22.80;45.70;;;;;;5077514;27;19931;-55
2022/07/10 12:12:00;;;;;;;;;;;22.60;46.40;;;;;;5109557;27;19912;-56
2022/07/10 12:14:40;;;;;;;;;;;22.60;47.20;;;;;;5103185;27;19920;-55
2022/07/10 12:17:19;;;;;;;;;;;22.80;47.30;;;;;;5154914;27;19911;-56
2022/07/10 12:19:59;;;;;;;;;;;22.80;46.40;;;;;;5101736;27;20370;-55
2022/07/10 12:22:39;;;;;;;;;;;22.70;45.10;;;;;;5098080;27;20397;-55
2022/07/10 12:25:19;;;;;;;;;;;22.60;46.20;;;;;;5122590;27;19915;-54
2022/07/10 12:27:59;;;;;;;;;;;22.80;46.60;;;;;;5100915;27;19916;-55
2022/07/10 12:30:39;;;;;;;;;;;22.80;48.70;;;;;;5123574;27;19912;-55
2022/07/10 12:33:21;;;;;;;;;;;22.70;46.60;;;;;;5137436;27;19915;-55
2022/07/10 12:36:01;;;;;;;;;;;22.50;46.10;;;;;;5122246;27;19912;-55
2022/07/10 12:38:41;;;;;;;;;;;22.70;46.40;;;;;;5109902;27;19916;-55
2022/07/10 12:41:24;;;;;;;;;;;22.70;45.50;;;;;;5103528;27;19926;-55
2022/07/10 12:44:05;;;;;;;;;;;22.40;47.20;;;;;;5102827;27;20324;-55
2022/07/10 12:47:00;;;;;;;;;;;22.50;47.40;;;;;;5069850;27;19924;-54
2022/07/10 12:49:53;;;;;;;;;;;22.40;46.90;;;;;;5123913;27;20365;-55
2022/07/10 12:52:33;;;;;;;;;;;22.10;47.60;;;;;;5124213;27;19912;-55
2022/07/10 12:55:15;;;;;;;;;;;21.80;47.20;;;;;;5156507;27;19911;-55
2022/07/10 12:57:56;;;;;;;;;;;21.60;48.80;;;;;;5104162;27;20216;-56
2022/07/10 13:00:44;;;;;;;;;;;21.50;48.10;;;;;;5119991;27;20564;-55
2022/07/10 13:03:27;;;;;;;;;;;21.40;49.90;;;;;;5104064;27;19912;-55
2022/07/10 13:06:25;;;;;;;;;;;21.20;50.70;;;;;;5076660;28;19925;-55
2022/07/10 13:09:18;;;;;;;;;;;21.20;49.00;;;;;;5113344;27;20108;-55
2022/07/10 13:11:59;;;;;;;;;;;20.40;51.10;;;;;;5102967;27;20270;-56
2022/07/10 13:14:39;;;;;;;;;;;20.00;53.10;;;;;;5082883;28;19913;-55
2022/07/10 13:17:19;;;;;;;;;;;20.10;54.80;;;;;;5122399;27;19916;-55
2022/07/10 13:19:59;;;;;;;;;;;21.10;52.60;;;;;;5102657;27;19916;-55
2022/07/10 13:22:38;;;;;;;;;;;22.10;49.50;;;;;;5124564;27;19918;-55
2022/07/10 13:25:18;;;;;;;;;;;23.00;49.10;;;;;;5118212;27;19923;-57
2022/07/10 13:27:58;;;;;;;;;;;23.90;45.90;;;;;;5084533;27;19917;-56
2022/07/10 13:30:38;;;;;;;;;;;24.50;43.10;;;;;;5100595;27;19930;-56
2022/07/10 13:33:18;;;;;;;;;;;24.70;43.90;;;;;;5085403;27;19917;-56
2022/07/10 13:35:59;;;;;;;;;;;24.60;42.00;;;;;;5122768;27;19916;-56
2022/07/10 13:38:39;;;;;;;;;;;24.10;42.30;;;;;;5123536;27;19912;-56
2022/07/10 13:41:19;;;;;;;;;;;23.70;45.20;;;;;;5115034;27;19916;-57
2022/07/10 13:43:59;;;;;;;;;;;23.30;42.50;;;;;;5111880;27;19912;-55
2022/07/10 13:46:39;;;;;;;;;;;22.90;44.50;;;;;;5103499;27;19926;-55
2022/07/10 13:49:22;;;;;;;;;;;22.20;45.10;;;;;;5124012;27;20339;-56
2022/07/10 13:52:01;;;;;;;;;;;22.10;45.40;;;;;;5103815;27;19953;-55
2022/07/10 13:54:41;;;;;;;;;;;22.10;46.40;;;;;;5092066;27;19924;-56
2022/07/10 13:57:21;;;;;;;;;;;22.60;47.80;;;;;;5099502;27;20359;-54
2022/07/10 14:00:01;;;;;;;;;;;23.20;43.60;;;;;;5101653;27;19958;-55
2022/07/10 14:02:55;;;;;;;;;;;22.60;46.60;;;;;;5121497;27;20269;-55
2022/07/10 14:05:35;;;;;;;;;;;22.00;46.80;;;;;;5123799;27;19945;-54
2022/07/10 14:08:15;;;;;;;;;;;21.60;48.80;;;;;;5120276;27;20301;-55
2022/07/10 14:10:55;;;;;;;;;;;21.40;50.00;;;;;;5094121;27;19916;-55
2022/07/10 14:13:35;;;;;;;;;;;21.40;50.20;;;;;;5124155;27;19918;-55
2022/07/10 14:16:16;;;;;;;;;;;21.60;50.30;;;;;;5116803;27;20282;-55
2022/07/10 14:18:56;;;;;;;;;;;21.70;48.30;;;;;;5120234;27;19912;-55
2022/07/10 14:21:37;;;;;;;;;;;21.60;48.30;;;;;;5074356;28;19917;-54
2022/07/10 14:24:17;;;;;;;;;;;21.80;50.10;;;;;;5121495;27;19911;-55
2022/07/10 14:26:57;;;;;;;;;;;22.30;48.00;;;;;;5091670;27;19926;-57
2022/07/10 14:29:37;;;;;;;;;;;22.90;48.60;;;;;;5103275;27;19913;-56
2022/07/10 14:32:20;;;;;;;;;;;23.40;46.70;;;;;;5123544;27;20296;-55
2022/07/10 14:35:01;;;;;;;;;;;23.60;46.20;;;;;;5124065;27;19912;-55
2022/07/10 14:37:44;;;;;;;;;;;23.40;46.00;;;;;;5116814;27;19916;-55
2022/07/10 14:40:27;;;;;;;;;;;23.20;45.50;;;;;;5122798;27;19921;-56
2022/07/10 14:43:07;;;;;;;;;;;23.10;46.80;;;;;;5102156;27;19918;-57
2022/07/10 14:45:47;;;;;;;;;;;23.40;47.30;;;;;;5103075;27;20426;-55
2022/07/10 14:48:28;;;;;;;;;;;22.90;47.50;;;;;;5140216;22;19928;-55
2022/07/10 14:51:08;;;;;;;;;;;22.20;47.40;;;;;;5123651;27;19915;-56
2022/07/10 14:53:48;;;;;;;;;;;21.80;48.10;;;;;;5123816;27;20388;-54
2022/07/10 14:56:28;;;;;;;;;;;21.50;48.70;;;;;;5123360;27;19920;-54
2022/07/10 14:59:09;;;;;;;;;;;21.50;49.70;;;;;;5123430;27;19912;-55
2022/07/10 15:01:49;;;;;;;;;;;21.50;50.90;;;;;;5124168;27;20336;-56
2022/07/10 15:04:29;;;;;;;;;;;21.60;50.60;;;;;;5123683;27;19911;-52
2022/07/10 15:07:09;;;;;;;;;;;21.90;51.00;;;;;;5123360;27;19912;-55
2022/07/10 15:09:48;;;;;;;;;;;22.00;49.90;;;;;;5102437;27;19957;-55
2022/07/10 15:12:31;;;;;;;;;;;22.20;49.40;;;;;;5122663;27;19912;-53
2022/07/10 15:15:12;;;;;;;;;;;22.50;48.90;;;;;;5123118;27;19919;-52
2022/07/10 15:17:53;;;;;;;;;;;22.60;48.60;;;;;;5113889;27;19916;-57
2022/07/10 15:20:32;;;;;;;;;;;23.20;48.10;;;;;;5145024;27;20166;-52
2022/07/10 15:23:12;;;;;;;;;;;23.50;46.30;;;;;;5103966;27;19963;-55
2022/07/10 15:25:52;;;;;;;;;;;23.00;46.60;;;;;;5123057;27;19915;-53
2022/07/10 15:28:32;;;;;;;;;;;22.10;47.50;;;;;;5144482;27;19955;-55
2022/07/10 15:31:12;;;;;;;;;;;21.40;48.90;;;;;;5103737;27;19926;-55
2022/07/10 15:33:52;;;;;;;;;;;21.70;49.60;;;;;;5103195;27;19916;-55
2022/07/10 15:36:31;;;;;;;;;;;21.50;49.10;;;;;;5121543;27;19926;-55
2022/07/10 15:39:13;;;;;;;;;;;21.00;50.80;;;;;;5114836;27;19916;-53
2022/07/10 15:41:53;;;;;;;;;;;20.80;50.50;;;;;;5083861;27;19912;-54